createdAt,value
2022-12-20T00:01:56.944Z,100994.55
2022-12-20T00:04:25.898Z,100996.59
2022-12-20T00:06:54.888Z,100980.05
2022-12-20T00:09:25.469Z,100978.52
2022-12-20T00:11:54.255Z,100963.17
2022-12-20T00:14:22.858Z,100963.59
2022-12-20T00:16:51.444Z,100970.70
2022-12-20T00:19:20.332Z,100976.27
2022-12-20T00:21:48.917Z,100971.66
2022-12-20T00:24:23.926Z,100963.46
2022-12-20T00:26:54.569Z,100963.35
2022-12-20T00:29:23.370Z,100963.73
2022-12-20T00:31:52.426Z,100962.54
2022-12-20T00:34:21.192Z,100954.15
2022-12-20T00:36:49.780Z,100959.73
2022-12-20T00:39:18.394Z,100952.67
2022-12-20T00:41:46.914Z,100943.36
2022-12-20T00:44:15.554Z,100938.42
2022-12-20T00:46:44.193Z,100944.33
2022-12-20T00:49:12.962Z,100943.66
2022-12-20T00:51:41.528Z,100939.42
2022-12-20T00:54:10.129Z,100952.33
2022-12-20T00:56:38.768Z,100947.02
2022-12-20T00:59:07.750Z,100947.04
2022-12-20T01:01:36.521Z,100941.86
2022-12-20T01:04:05.503Z,100940.30
2022-12-20T01:06:34.473Z,100941.88
2022-12-20T01:09:03.085Z,100948.95
2022-12-20T01:11:38.553Z,100949.14
2022-12-20T01:14:12.258Z,100956.95
2022-12-20T01:16:45.156Z,100964.77
2022-12-20T01:19:17.690Z,100976.82
2022-12-20T01:21:46.788Z,100978.51
2022-12-20T01:24:18.277Z,100978.31
2022-12-20T01:26:47.623Z,100974.90
2022-12-20T01:29:16.456Z,100977.58
2022-12-20T01:31:45.433Z,100983.59
2022-12-20T01:34:14.252Z,100987.98
2022-12-20T01:36:42.909Z,100984.10
2022-12-20T01:39:16.762Z,100974.96
2022-12-20T01:41:46.538Z,100974.81
2022-12-20T01:44:17.796Z,100973.99
2022-12-20T01:46:49.216Z,100976.52
2022-12-20T01:49:26.564Z,100969.71
2022-12-20T01:52:09.112Z,100969.96
2022-12-20T01:54:51.631Z,100961.24
2022-12-20T01:57:31.761Z,100953.02
2022-12-20T02:00:00.372Z,100942.02
2022-12-20T02:02:29.275Z,100938.79
2022-12-20T02:04:58.073Z,100931.89
2022-12-20T02:07:31.024Z,100933.98
2022-12-20T02:10:02.075Z,100924.87
2022-12-20T02:12:38.102Z,100917.45
2022-12-20T02:15:32.438Z,100914.19
2022-12-20T02:18:20.479Z,100903.86
2022-12-20T02:21:07.791Z,100896.20
2022-12-20T02:24:15.138Z,100895.67
2022-12-20T02:27:30.249Z,100891.17
2022-12-20T02:30:04.847Z,100881.52
2022-12-20T02:33:19.056Z,100873.94
2022-12-20T02:35:47.689Z,100876.70
2022-12-20T02:38:38.138Z,100873.48
2022-12-20T02:41:27.135Z,100877.80
2022-12-20T02:44:23.661Z,100876.75
2022-12-20T02:46:54.078Z,100866.77
2022-12-20T02:49:29.030Z,100856.61
2022-12-20T02:51:59.166Z,100849.07
2022-12-20T02:54:29.906Z,100843.45
2022-12-20T02:57:09.491Z,100836.06
2022-12-20T02:59:55.527Z,100831.59
2022-12-20T03:02:25.958Z,100832.45
2022-12-20T03:04:56.917Z,100834.21
2022-12-20T03:07:25.471Z,100836.46
2022-12-20T03:09:54.015Z,100833.89
2022-12-20T03:12:22.556Z,100825.63
2022-12-20T03:14:51.123Z,100829.27
2022-12-20T03:17:19.748Z,100832.10
2022-12-20T03:19:48.535Z,100835.41
2022-12-20T03:22:17.038Z,100837.84
2022-12-20T03:24:45.561Z,100833.41
2022-12-20T03:27:14.153Z,100827.45
2022-12-20T03:29:42.831Z,100830.64
2022-12-20T03:32:12.034Z,100828.02
2022-12-20T03:34:40.561Z,100832.64
2022-12-20T03:37:09.092Z,100836.19
2022-12-20T03:39:37.632Z,100836.32
2022-12-20T03:42:06.344Z,100838.98
2022-12-20T03:44:34.985Z,100839.73
2022-12-20T03:47:04.222Z,100839.30
2022-12-20T03:49:32.847Z,100837.45
2022-12-20T03:52:01.383Z,100833.21
2022-12-20T03:54:29.982Z,100833.66
2022-12-20T03:56:58.525Z,100835.11
2022-12-20T03:59:27.062Z,100828.47
2022-12-20T04:01:55.785Z,100837.63
2022-12-20T04:04:24.403Z,100842.27
2022-12-20T04:06:53.117Z,100839.88
2022-12-20T04:09:21.677Z,100834.38
2022-12-20T04:11:50.330Z,100831.64
2022-12-20T04:14:18.957Z,100829.05
2022-12-20T04:16:47.541Z,100833.50
2022-12-20T04:19:16.291Z,100829.36
2022-12-20T04:21:45.287Z,100828.17
2022-12-20T04:24:13.898Z,100830.80
2022-12-20T04:26:42.520Z,100825.51
2022-12-20T04:29:11.055Z,100831.29
2022-12-20T04:31:39.662Z,100824.41
2022-12-20T04:34:08.665Z,100822.33
2022-12-20T04:36:37.375Z,100825.19
2022-12-20T04:39:05.995Z,100833.16
2022-12-20T04:41:34.547Z,100833.02
2022-12-20T04:44:03.114Z,100836.11
2022-12-20T04:46:31.874Z,100839.20
2022-12-20T04:49:00.543Z,100837.98
2022-12-20T04:51:29.171Z,100835.67
2022-12-20T04:53:57.757Z,100832.19
2022-12-20T04:56:28.843Z,100828.54
2022-12-20T04:58:59.046Z,100829.85
2022-12-20T05:01:27.815Z,100836.04
2022-12-20T05:03:56.793Z,100836.66
2022-12-20T05:06:25.400Z,100843.58
2022-12-20T05:08:55.319Z,100853.59
2022-12-20T05:11:24.045Z,100849.87
2022-12-20T05:13:52.598Z,100840.98
2022-12-20T05:16:21.326Z,100841.30
2022-12-20T05:18:50.007Z,100848.17
2022-12-20T05:21:36.994Z,100845.73
2022-12-20T05:24:24.866Z,100843.09
2022-12-20T05:26:53.561Z,100847.64
2022-12-20T05:29:22.241Z,100849.83
2022-12-20T05:31:50.872Z,100849.25
2022-12-20T05:34:20.160Z,100853.34
2022-12-20T05:36:48.687Z,100844.00
2022-12-20T05:39:17.494Z,100854.23
2022-12-20T05:41:46.004Z,100860.90
2022-12-20T05:44:15.355Z,100853.64
2022-12-20T05:46:43.948Z,100855.67
2022-12-20T05:49:12.584Z,100850.77
2022-12-20T05:51:41.162Z,100831.10
2022-12-20T05:54:09.784Z,100830.39
2022-12-20T05:56:38.387Z,100835.41
2022-12-20T05:59:06.895Z,100837.77
2022-12-20T06:01:35.531Z,100839.62
2022-12-20T06:04:04.405Z,100839.55
2022-12-20T06:06:32.962Z,100830.02
2022-12-20T06:09:01.513Z,100821.53
2022-12-20T06:11:30.653Z,100823.86
2022-12-20T06:13:59.502Z,100829.58
2022-12-20T06:16:28.671Z,100828.84
2022-12-20T06:18:57.431Z,100830.31
2022-12-20T06:21:27.709Z,100819.25
2022-12-20T06:23:57.148Z,100814.44
2022-12-20T06:26:25.841Z,100812.02
2022-12-20T06:28:57.228Z,100812.81
2022-12-20T06:31:25.863Z,100805.14
2022-12-20T06:33:54.820Z,100800.54
2022-12-20T06:36:23.338Z,100806.42
2022-12-20T06:38:52.224Z,100798.86
2022-12-20T06:41:20.760Z,100786.15
2022-12-20T06:43:49.425Z,100789.53
2022-12-20T06:46:18.171Z,100797.10
2022-12-20T06:48:46.755Z,100803.69
2022-12-20T06:51:17.350Z,100810.16
2022-12-20T06:53:46.007Z,100811.27
2022-12-20T06:56:14.579Z,100803.27
2022-12-20T06:58:47.211Z,100799.60
2022-12-20T07:01:15.795Z,100800.61
2022-12-20T07:03:44.489Z,100802.30
2022-12-20T07:06:13.127Z,100809.32
2022-12-20T07:08:41.645Z,100814.09
2022-12-20T07:11:10.597Z,100814.70
2022-12-20T07:13:39.380Z,100818.14
2022-12-20T07:16:08.241Z,100822.44
2022-12-20T07:18:36.952Z,100827.94
2022-12-20T07:21:06.223Z,100822.48
2022-12-20T07:23:34.803Z,100823.52
2022-12-20T07:26:04.159Z,100823.54
2022-12-20T07:28:33.014Z,100822.48
2022-12-20T07:31:03.384Z,100826.09
2022-12-20T07:33:33.554Z,100826.48
2022-12-20T07:36:10.075Z,100820.05
2022-12-20T07:38:38.783Z,100819.16
2022-12-20T07:41:19.213Z,100818.33
2022-12-20T07:43:47.882Z,100821.73
2022-12-20T07:46:17.900Z,100817.36
2022-12-20T07:48:46.502Z,100816.67
2022-12-20T07:51:25.940Z,100820.63
2022-12-20T07:54:13.052Z,100816.15
2022-12-20T07:56:47.353Z,100812.98
2022-12-20T07:59:21.754Z,100810.33
2022-12-20T08:01:51.031Z,100807.63
2022-12-20T08:04:25.673Z,100808.36
2022-12-20T08:06:58.089Z,100802.57
2022-12-20T08:09:31.418Z,100809.45
2022-12-20T08:12:00.570Z,100802.42
2022-12-20T08:14:29.285Z,100798.84
2022-12-20T08:16:57.902Z,100797.23
2022-12-20T08:19:31.980Z,100802.65
2022-12-20T08:22:01.200Z,100801.73
2022-12-20T08:24:29.715Z,100799.45
2022-12-20T08:26:58.241Z,100800.27
2022-12-20T08:29:26.881Z,100808.45
2022-12-20T08:31:55.451Z,100803.95
2022-12-20T08:34:23.983Z,100812.80
2022-12-20T08:36:52.591Z,100814.52
2022-12-20T08:39:21.113Z,100818.63
2022-12-20T08:41:49.757Z,100821.13
2022-12-20T08:44:18.369Z,100826.44
2022-12-20T08:46:46.980Z,100821.64
2022-12-20T08:49:15.598Z,100817.52
2022-12-20T08:51:44.148Z,100815.61
2022-12-20T08:54:12.701Z,100807.06
2022-12-20T08:56:41.235Z,100800.79
2022-12-20T08:59:10.018Z,100805.52
2022-12-20T09:01:38.637Z,100810.87
2022-12-20T09:04:07.583Z,100823.32
2022-12-20T09:06:37.272Z,100824.79
2022-12-20T09:09:07.251Z,100824.13
2022-12-20T09:11:35.864Z,100822.41
2022-12-20T09:14:04.411Z,100824.65
2022-12-20T09:16:33.424Z,100820.54
2022-12-20T09:19:06.030Z,100811.86
2022-12-20T09:21:35.394Z,100808.79
2022-12-20T09:24:04.347Z,100813.04
2022-12-20T09:26:35.350Z,100812.77
2022-12-20T09:29:06.060Z,100811.54
2022-12-20T09:31:34.851Z,100803.20
2022-12-20T09:34:03.504Z,100801.73
2022-12-20T09:36:32.172Z,100799.52
2022-12-20T09:39:00.849Z,100798.64
2022-12-20T09:41:33.482Z,100796.64
2022-12-20T09:44:20.184Z,100794.50
2022-12-20T09:47:06.416Z,100792.84
2022-12-20T09:49:43.464Z,100790.82
2022-12-20T09:53:18.446Z,100771.42
2022-12-20T09:55:58.045Z,100763.64
2022-12-20T09:58:37.192Z,100762.64
2022-12-20T10:01:25.018Z,100763.52
2022-12-20T10:03:57.475Z,100770.98
2022-12-20T10:06:44.298Z,100763.84
2022-12-20T10:10:19.696Z,100767.77
2022-12-20T10:13:09.134Z,100786.88
2022-12-20T10:16:35.040Z,100799.56
2022-12-20T10:19:12.324Z,100798.71
2022-12-20T10:21:55.594Z,100792.50
2022-12-20T10:24:35.815Z,100778.17
2022-12-20T10:27:20.238Z,100774.17
2022-12-20T10:29:51.944Z,100771.16
2022-12-20T10:32:24.440Z,100777.08
2022-12-20T10:35:15.240Z,100789.88
2022-12-20T10:38:12.755Z,100794.37
2022-12-20T10:44:00.167Z,100770.97
2022-12-20T10:46:57.180Z,100769.58
2022-12-20T10:49:34.273Z,100764.95
2022-12-20T10:52:14.262Z,100751.30
2022-12-20T10:54:45.725Z,100746.86
2022-12-20T10:57:26.266Z,100743.08
2022-12-20T11:00:00.328Z,100738.76
2022-12-20T11:02:42.075Z,100750.55
2022-12-20T11:05:11.242Z,100748.21
2022-12-20T11:08:33.787Z,100742.56
2022-12-20T11:10:45.455Z,100730.92
2022-12-20T11:13:29.094Z,100729.03
2022-12-20T11:16:01.482Z,100731.90
2022-12-20T11:18:45.558Z,100731.34
2022-12-20T11:21:37.963Z,100725.55
2022-12-20T11:24:30.785Z,100726.16
2022-12-20T11:27:59.515Z,100723.16
2022-12-20T11:31:20.365Z,100723.91
2022-12-20T11:34:13.665Z,100719.75
2022-12-20T11:36:49.426Z,100714.01
2022-12-20T11:39:34.407Z,100713.39
2022-12-20T11:42:29.008Z,100705.29
2022-12-20T11:45:46.719Z,100707.42
2022-12-20T11:48:27.752Z,100701.91
2022-12-20T11:50:59.232Z,100706.48
2022-12-20T11:53:52.636Z,100707.47
2022-12-20T11:56:43.732Z,100707.21
2022-12-20T11:59:26.905Z,100715.12
2022-12-20T12:02:42.449Z,100702.95
2022-12-20T12:05:49.095Z,100690.39
2022-12-20T12:08:34.600Z,100672.96
2022-12-20T12:11:55.706Z,100673.27
2022-12-20T12:14:06.613Z,100668.80
2022-12-20T12:16:40.583Z,100677.92
2022-12-20T12:19:12.750Z,100690.45
2022-12-20T12:21:51.425Z,100706.20
2022-12-20T12:24:32.601Z,100714.91
2022-12-20T12:27:02.132Z,100704.27
2022-12-20T12:29:34.839Z,100697.68
2022-12-20T12:32:17.212Z,100684.39
2022-12-20T12:35:19.393Z,100690.58
2022-12-20T12:38:28.244Z,100717.00
2022-12-20T12:41:52.032Z,100717.20
2022-12-20T12:44:20.532Z,100702.29
2022-12-20T12:46:59.590Z,100703.30
2022-12-20T12:49:31.481Z,100710.71
2022-12-20T12:52:02.956Z,100708.79
2022-12-20T12:54:41.633Z,100689.32
2022-12-20T12:57:16.533Z,100668.96
2022-12-20T12:59:51.899Z,100662.22
2022-12-20T13:02:26.485Z,100659.92
2022-12-20T13:05:11.007Z,100654.64
2022-12-20T13:07:43.680Z,100655.77
2022-12-20T13:10:14.956Z,100652.47
2022-12-20T13:12:52.710Z,100655.48
2022-12-20T13:15:21.312Z,100658.11
2022-12-20T13:18:01.740Z,100644.13
2022-12-20T13:20:34.129Z,100636.91
2022-12-20T13:23:08.364Z,100645.04
2022-12-20T13:25:41.599Z,100652.95
2022-12-20T13:28:19.164Z,100660.56
2022-12-20T13:31:09.881Z,100663.29
2022-12-20T13:33:45.417Z,100666.98
2022-12-20T13:36:16.717Z,100668.94
2022-12-20T13:38:55.568Z,100674.96
2022-12-20T13:41:47.954Z,100670.37
2022-12-20T13:44:16.244Z,100654.31
2022-12-20T13:47:27.696Z,100653.98
2022-12-20T13:50:00.924Z,100643.34
2022-12-20T13:52:32.125Z,100643.16
2022-12-20T13:55:15.798Z,100644.29
2022-12-20T13:57:46.143Z,100637.02
2022-12-20T14:00:26.711Z,100628.48
2022-12-20T14:02:56.014Z,100623.63
2022-12-20T14:05:34.629Z,100621.66
2022-12-20T14:08:16.221Z,100621.91
2022-12-20T14:10:44.595Z,100625.96
2022-12-20T14:13:27.902Z,100627.05
2022-12-20T14:15:56.529Z,100614.80
2022-12-20T14:18:26.663Z,100605.72
2022-12-20T14:21:02.128Z,100593.03
2022-12-20T14:23:40.324Z,100585.15
2022-12-20T14:26:17.013Z,100596.79
2022-12-20T14:28:49.772Z,100603.27
2022-12-20T14:31:38.834Z,100613.20
2022-12-20T14:34:13.595Z,100606.58
2022-12-20T14:36:50.696Z,100594.92
2022-12-20T14:39:32.062Z,100589.52
2022-12-20T14:42:07.242Z,100588.66
2022-12-20T14:44:35.740Z,100584.03
2022-12-20T14:47:27.419Z,100580.19
2022-12-20T14:50:17.368Z,100583.30
2022-12-20T14:52:46.412Z,100579.79
2022-12-20T14:55:20.545Z,100574.31
2022-12-20T14:57:57.155Z,100576.43
2022-12-20T15:00:32.713Z,100581.08
2022-12-20T15:03:21.524Z,100584.19
2022-12-20T15:06:00.755Z,100583.60
2022-12-20T15:08:34.949Z,100578.59
2022-12-20T15:11:22.734Z,100567.55
2022-12-20T15:13:54.598Z,100553.27
2022-12-20T15:16:29.511Z,100546.20
2022-12-20T15:19:01.932Z,100544.94
2022-12-20T15:21:43.007Z,100537.62
2022-12-20T15:24:17.000Z,100528.70
2022-12-20T15:26:45.723Z,100520.48
2022-12-20T15:29:21.288Z,100526.09
2022-12-20T15:31:52.425Z,100536.27
2022-12-20T15:34:38.759Z,100543.85
2022-12-20T15:37:08.492Z,100549.53
2022-12-20T15:39:38.687Z,100549.84
2022-12-20T15:42:10.610Z,100534.14
2022-12-20T15:44:39.096Z,100528.33
2022-12-20T15:47:12.993Z,100531.36
2022-12-20T15:49:46.292Z,100539.02
2022-12-20T15:52:24.008Z,100531.80
2022-12-20T15:54:52.397Z,100535.55
2022-12-20T15:57:20.991Z,100541.55
2022-12-20T16:00:01.197Z,100544.77
2022-12-20T16:02:32.618Z,100539.55
2022-12-20T16:05:01.771Z,100528.27
2022-12-20T16:07:30.355Z,100531.14
2022-12-20T16:09:58.830Z,100536.77
2022-12-20T16:12:33.449Z,100530.67
2022-12-20T16:15:02.149Z,100516.95
2022-12-20T16:17:30.645Z,100507.04
2022-12-20T16:19:59.155Z,100508.39
2022-12-20T16:22:27.588Z,100509.22
2022-12-20T16:24:55.928Z,100514.17
2022-12-20T16:27:24.465Z,100519.29
2022-12-20T16:29:52.779Z,100523.05
2022-12-20T16:32:22.150Z,100520.27
2022-12-20T16:48:43.409Z,100504.20
2022-12-20T16:51:40.784Z,100505.98
2022-12-20T16:54:22.796Z,100512.56
2022-12-20T16:56:55.618Z,100522.38
2022-12-20T16:59:25.312Z,100531.17
2022-12-20T17:01:57.359Z,100520.13
2022-12-20T17:04:26.938Z,100517.89
2022-12-20T17:06:55.434Z,100515.63
2022-12-20T17:09:23.761Z,100511.94
2022-12-20T17:11:52.173Z,100514.98
2022-12-20T17:14:20.471Z,100523.33
2022-12-20T17:16:49.604Z,100526.33
2022-12-20T17:19:18.123Z,100524.75
2022-12-20T17:24:35.269Z,100508.54
2022-12-20T17:27:03.854Z,100504.42
2022-12-20T17:29:32.165Z,100501.49
2022-12-20T17:32:00.752Z,100499.52
2022-12-20T17:34:30.858Z,100502.05
2022-12-20T17:36:59.236Z,100507.73
2022-12-20T17:39:27.602Z,100510.95
2022-12-20T17:41:55.990Z,100519.30
2022-12-20T17:44:28.723Z,100516.00
2022-12-20T17:46:58.304Z,100504.92
2022-12-20T17:49:26.744Z,100493.14
2022-12-20T17:51:56.310Z,100494.31
2022-12-20T17:54:34.890Z,100498.40
2022-12-20T17:57:16.045Z,100507.69
2022-12-20T17:59:44.855Z,100519.23
2022-12-20T18:02:23.550Z,100511.95
2022-12-20T18:04:53.128Z,100530.97
2022-12-20T18:07:21.725Z,100528.95
2022-12-20T18:09:51.000Z,100515.39
2022-12-20T18:12:19.481Z,100499.77
2022-12-20T18:14:50.115Z,100494.98
2022-12-20T18:17:18.598Z,100491.27
2022-12-20T18:25:18.322Z,100515.93
2022-12-20T18:27:46.820Z,100518.83
2022-12-20T18:30:15.321Z,100501.66
2022-12-20T18:32:43.706Z,100505.18
2022-12-20T18:35:12.076Z,100507.23
2022-12-20T18:37:40.823Z,100499.48
2022-12-20T18:40:09.927Z,100496.16
2022-12-20T18:42:38.350Z,100478.20
2022-12-20T18:45:07.449Z,100469.86
2022-12-20T18:47:37.271Z,100467.98
2022-12-20T18:50:07.141Z,100472.96
2022-12-20T18:52:35.479Z,100469.36
2022-12-20T18:55:04.356Z,100465.55
2022-12-20T18:57:33.368Z,100459.02
2022-12-20T19:00:03.484Z,100453.92
2022-12-20T19:02:31.953Z,100460.73
2022-12-20T19:05:00.612Z,100449.63
2022-12-20T19:07:29.033Z,100444.97
2022-12-20T19:09:57.339Z,100437.52
2022-12-20T19:12:25.707Z,100426.45
2022-12-20T19:14:54.110Z,100422.27
2022-12-20T19:17:22.500Z,100424.27
2022-12-20T19:19:50.859Z,100428.48
2022-12-20T19:22:19.436Z,100429.59
2022-12-20T19:24:47.826Z,100427.61
2022-12-20T19:27:16.147Z,100436.54
2022-12-20T19:29:44.481Z,100438.96
2022-12-20T19:32:13.111Z,100435.27
2022-12-20T19:34:41.859Z,100433.45
2022-12-20T19:37:10.188Z,100431.55
2022-12-20T19:39:38.673Z,100423.95
2022-12-20T19:42:23.692Z,100422.00
2022-12-20T19:44:53.385Z,100426.37
2022-12-20T19:47:22.367Z,100419.17
2022-12-20T19:49:51.210Z,100419.23
2022-12-20T19:52:23.363Z,100425.05
2022-12-20T19:54:56.594Z,100426.18
2022-12-20T19:57:24.975Z,100424.59
2022-12-20T19:59:55.936Z,100426.06
2022-12-20T20:02:25.266Z,100423.16
2022-12-20T20:04:53.810Z,100409.14
2022-12-20T20:07:22.197Z,100398.76
2022-12-20T20:09:50.691Z,100389.98
2022-12-20T20:12:19.476Z,100391.55
2022-12-20T20:14:48.166Z,100374.65
2022-12-20T20:17:16.526Z,100375.34
2022-12-20T20:19:47.054Z,100381.04
2022-12-20T20:22:22.504Z,100386.23
2022-12-20T20:24:51.509Z,100380.83
2022-12-20T20:27:19.917Z,100389.77
2022-12-20T20:29:50.353Z,100390.75
2022-12-20T20:32:18.914Z,100383.50
2022-12-20T20:34:47.292Z,100375.23
2022-12-20T20:37:16.023Z,100387.10
2022-12-20T20:39:44.437Z,100388.10
2022-12-20T20:42:15.910Z,100372.68
2022-12-20T20:44:46.903Z,100371.77
2022-12-20T20:47:15.332Z,100370.30
2022-12-20T20:49:43.748Z,100373.20
2022-12-20T20:52:12.071Z,100378.21
2022-12-20T20:54:40.399Z,100368.94
2022-12-20T20:57:08.874Z,100358.59
2022-12-20T20:59:37.545Z,100352.23
2022-12-20T21:02:06.245Z,100363.08
2022-12-20T21:04:34.923Z,100356.42
2022-12-20T21:07:03.314Z,100331.35
2022-12-20T21:09:32.670Z,100325.40
2022-12-20T21:12:01.495Z,100340.45
2022-12-20T21:14:53.543Z,100363.17
2022-12-20T21:17:18.463Z,100373.33
2022-12-20T21:19:46.836Z,100368.16
2022-12-20T21:22:15.130Z,100359.75
2022-12-20T21:24:43.606Z,100359.23
2022-12-20T21:27:12.048Z,100357.92
2022-12-20T21:29:40.452Z,100357.96
2022-12-20T21:32:08.810Z,100355.80
2022-12-20T21:34:37.126Z,100354.69
2022-12-20T21:37:07.017Z,100352.27
2022-12-20T21:39:36.189Z,100342.18
2022-12-20T21:42:04.639Z,100325.52
2022-12-20T21:44:33.019Z,100317.69
2022-12-20T21:47:01.533Z,100327.52
2022-12-20T21:49:29.982Z,100327.00
2022-12-20T21:51:58.436Z,100317.98
2022-12-20T21:54:26.834Z,100313.31
2022-12-20T21:56:56.220Z,100320.83
2022-12-20T21:59:24.803Z,100340.48
2022-12-20T22:01:54.657Z,100335.80
2022-12-20T22:04:24.181Z,100328.43
2022-12-20T22:06:52.647Z,100325.36
2022-12-20T22:09:21.072Z,100310.59
2022-12-20T22:11:49.416Z,100308.60
2022-12-20T22:14:17.725Z,100311.10
2022-12-20T22:16:46.124Z,100300.02
2022-12-20T22:19:15.607Z,100299.61
2022-12-20T22:21:44.005Z,100297.63
2022-12-20T22:24:12.526Z,100290.55
2022-12-20T22:26:41.151Z,100304.07
2022-12-20T22:29:09.866Z,100301.02
2022-12-20T22:31:38.549Z,100287.44
2022-12-20T22:34:06.953Z,100289.39
2022-12-20T22:36:35.892Z,100277.13
2022-12-20T22:39:04.275Z,100272.00
2022-12-20T22:41:35.065Z,100278.13
2022-12-20T22:44:04.151Z,100279.42
2022-12-20T22:49:19.488Z,100282.93
2022-12-20T22:52:02.465Z,100293.00
2022-12-20T22:54:35.561Z,100293.78
2022-12-20T22:57:03.953Z,100278.04
2022-12-20T22:59:34.683Z,100267.42
2022-12-20T23:02:03.228Z,100261.30
2022-12-20T23:04:31.862Z,100261.03
2022-12-20T23:07:00.312Z,100261.17
2022-12-20T23:09:28.659Z,100261.83
2022-12-20T23:12:15.750Z,100250.55
2022-12-20T23:15:04.362Z,100232.96
2022-12-20T23:17:33.293Z,100222.66
2022-12-20T23:20:20.395Z,100223.00
2022-12-20T23:22:48.736Z,100225.88
2022-12-20T23:25:19.905Z,100228.79
2022-12-20T23:27:49.918Z,100223.55
2022-12-20T23:30:22.465Z,100215.46
2022-12-20T23:32:51.469Z,100211.02
2022-12-20T23:35:21.476Z,100222.52
2022-12-20T23:37:49.905Z,100228.34
2022-12-20T23:40:18.925Z,100229.02
2022-12-20T23:42:47.344Z,100233.14
2022-12-20T23:55:03.314Z,100238.33
2022-12-20T23:57:31.917Z,100233.42
